createdAt,value
2023-09-21T00:01:10.242Z,13.63
2023-09-21T00:03:37.941Z,13.67
2023-09-21T00:06:12.438Z,13.75
2023-09-21T00:08:38.932Z,13.50
2023-09-21T00:11:06.913Z,13.35
2023-09-21T00:13:33.802Z,13.42
2023-09-21T00:16:02.552Z,13.57
2023-09-21T00:18:30.249Z,13.54
2023-09-21T00:20:58.570Z,13.45
2023-09-21T00:23:26.410Z,13.35
2023-09-21T00:25:53.830Z,13.24
2023-09-21T00:28:20.570Z,13.17
2023-09-21T00:30:47.666Z,13.13
2023-09-21T00:33:14.384Z,13.14
2023-09-21T00:35:41.242Z,13.12
2023-09-21T00:38:11.495Z,13.06
2023-09-21T00:40:40.128Z,13.09
2023-09-21T00:43:09.751Z,13.10
2023-09-21T00:45:45.054Z,13.07
2023-09-21T00:48:11.877Z,13.05
2023-09-21T00:50:40.131Z,13.05
2023-09-21T00:53:08.050Z,13.04
2023-09-21T00:55:36.022Z,13.09
2023-09-21T00:58:03.581Z,13.05
2023-09-21T01:00:32.092Z,13.07
2023-09-21T01:03:03.519Z,13.26
2023-09-21T01:05:30.067Z,13.21
2023-09-21T01:07:59.444Z,13.17
2023-09-21T01:10:27.226Z,13.06
2023-09-21T01:12:53.729Z,13.17
2023-09-21T01:15:20.302Z,13.14
2023-09-21T01:17:46.830Z,13.22
2023-09-21T01:20:15.359Z,13.12
2023-09-21T01:22:51.247Z,12.98
2023-09-21T01:25:17.972Z,12.84
2023-09-21T01:27:44.396Z,12.76
2023-09-21T01:30:11.783Z,12.71
2023-09-21T01:32:39.204Z,12.76
2023-09-21T01:35:09.066Z,12.64
2023-09-21T01:37:35.509Z,12.67
2023-09-21T01:40:04.649Z,12.68
2023-09-21T01:42:32.421Z,12.67
2023-09-21T01:44:59.162Z,12.65
2023-09-21T01:47:25.971Z,12.67
2023-09-21T01:49:52.464Z,12.80
2023-09-21T01:52:19.021Z,12.95
2023-09-21T01:54:45.751Z,12.87
2023-09-21T01:57:12.258Z,12.82
2023-09-21T01:59:38.722Z,12.78
2023-09-21T02:02:05.310Z,12.69
2023-09-21T02:04:33.004Z,12.60
2023-09-21T02:06:59.462Z,12.61
2023-09-21T02:09:27.091Z,12.60
2023-09-21T02:11:53.576Z,12.60
2023-09-21T02:14:20.224Z,12.56
2023-09-21T02:16:46.955Z,12.52
2023-09-21T02:19:13.698Z,12.42
2023-09-21T02:21:40.065Z,12.33
2023-09-21T02:24:06.993Z,12.45
2023-09-21T02:26:33.398Z,12.54
2023-09-21T02:29:00.097Z,12.54
2023-09-21T02:31:26.866Z,12.49
2023-09-21T02:33:53.499Z,12.52
2023-09-21T02:36:20.061Z,12.55
2023-09-21T02:38:50.670Z,12.54
2023-09-21T02:41:17.441Z,12.50
2023-09-21T02:43:43.904Z,12.53
2023-09-21T02:46:10.773Z,12.55
2023-09-21T02:48:37.314Z,12.56
2023-09-21T02:51:04.086Z,12.58
2023-09-21T02:53:33.297Z,12.59
2023-09-21T02:56:00.765Z,12.64
2023-09-21T02:58:27.180Z,12.72
2023-09-21T03:00:53.850Z,12.80
2023-09-21T03:03:21.928Z,12.70
2023-09-21T03:05:50.893Z,12.58
2023-09-21T03:08:25.787Z,12.68
2023-09-21T03:10:55.025Z,12.84
2023-09-21T03:13:22.132Z,12.82
2023-09-21T03:15:54.591Z,12.84
2023-09-21T03:18:22.743Z,12.78
2023-09-21T03:20:52.726Z,12.89
2023-09-21T03:23:19.323Z,12.87
2023-09-21T03:25:47.325Z,12.94
2023-09-21T03:28:21.106Z,12.97
2023-09-21T03:30:52.553Z,12.98
2023-09-21T03:33:21.022Z,12.96
2023-09-21T03:35:48.115Z,12.99
2023-09-21T03:38:14.750Z,13.03
2023-09-21T03:40:42.585Z,13.08
2023-09-21T03:43:10.535Z,13.05
2023-09-21T03:45:37.742Z,13.07
2023-09-21T03:48:04.736Z,13.03
2023-09-21T03:50:32.171Z,13.09
2023-09-21T03:52:59.933Z,13.17
2023-09-21T03:55:26.711Z,13.16
2023-09-21T03:57:54.337Z,13.21
2023-09-21T04:00:25.934Z,13.24
2023-09-21T04:02:55.904Z,13.33
2023-09-21T04:05:29.699Z,13.16
2023-09-21T04:07:56.283Z,13.19
2023-09-21T04:10:23.023Z,13.16
2023-09-21T04:12:50.098Z,13.19
2023-09-21T04:15:18.002Z,13.15
2023-09-21T04:17:44.514Z,13.17
2023-09-21T04:20:11.585Z,13.20
2023-09-21T04:22:42.387Z,13.25
2023-09-21T04:25:11.267Z,13.35
2023-09-21T04:28:04.170Z,13.36
2023-09-21T04:30:30.959Z,13.30
2023-09-21T04:32:57.540Z,13.20
2023-09-21T04:35:24.465Z,13.09
2023-09-21T04:37:51.641Z,13.11
2023-09-21T04:40:18.467Z,13.15
2023-09-21T04:42:55.514Z,13.13
2023-09-21T04:45:23.000Z,13.23
2023-09-21T04:47:49.775Z,13.35
2023-09-21T04:50:17.890Z,13.43
2023-09-21T04:52:45.985Z,13.40
2023-09-21T04:55:13.406Z,13.23
2023-09-21T04:57:39.914Z,13.17
2023-09-21T05:00:06.988Z,13.16
2023-09-21T05:02:33.929Z,13.16
2023-09-21T05:05:00.817Z,13.20
2023-09-21T05:07:27.345Z,13.24
2023-09-21T05:09:54.060Z,13.27
2023-09-21T05:12:20.676Z,13.37
2023-09-21T05:14:49.650Z,13.44
2023-09-21T05:17:18.917Z,13.52
2023-09-21T05:19:45.750Z,13.53
2023-09-21T05:22:12.373Z,13.55
2023-09-21T05:24:39.669Z,13.56
2023-09-21T05:27:06.908Z,13.61
2023-09-21T05:29:33.715Z,13.58
2023-09-21T05:32:00.688Z,13.57
2023-09-21T05:34:30.527Z,13.65
2023-09-21T05:36:58.304Z,13.85
2023-09-21T05:39:25.198Z,13.89
2023-09-21T05:41:52.375Z,13.95
2023-09-21T05:44:20.237Z,14.04
2023-09-21T05:46:46.796Z,14.13
2023-09-21T05:49:14.136Z,14.14
2023-09-21T05:51:40.732Z,14.18
2023-09-21T05:54:07.416Z,14.25
2023-09-21T05:56:36.100Z,14.29
2023-09-21T05:59:02.528Z,14.09
2023-09-21T06:01:29.217Z,14.05
2023-09-21T06:03:55.928Z,14.12
2023-09-21T06:06:23.094Z,14.05
2023-09-21T06:08:49.580Z,14.11
2023-09-21T06:11:17.413Z,14.14
2023-09-21T06:13:43.919Z,14.24
2023-09-21T06:16:10.488Z,14.32
2023-09-21T06:18:38.088Z,14.48
2023-09-21T06:21:04.675Z,14.42
2023-09-21T06:23:31.783Z,14.53
2023-09-21T06:25:58.258Z,14.66
2023-09-21T06:28:24.707Z,14.77
2023-09-21T06:30:51.350Z,14.87
2023-09-21T06:33:18.035Z,14.79
2023-09-21T06:35:49.811Z,14.78
2023-09-21T06:38:17.638Z,14.87
2023-09-21T06:40:44.789Z,14.87
2023-09-21T06:43:11.315Z,14.95
2023-09-21T06:45:39.074Z,15.04
2023-09-21T06:48:05.804Z,15.14
2023-09-21T06:50:32.606Z,15.22
2023-09-21T06:52:59.136Z,15.45
2023-09-21T06:55:25.946Z,15.56
2023-09-21T06:57:52.523Z,15.80
2023-09-21T07:00:19.000Z,15.78
2023-09-21T07:02:45.662Z,15.77
2023-09-21T07:05:12.353Z,15.70
2023-09-21T07:07:39.712Z,16.03
2023-09-21T07:10:06.790Z,16.31
2023-09-21T07:12:33.332Z,16.53
2023-09-21T07:14:59.822Z,16.53
2023-09-21T07:17:26.378Z,16.54
2023-09-21T07:19:53.119Z,16.48
2023-09-21T07:22:20.016Z,16.56
2023-09-21T07:24:46.753Z,16.59
2023-09-21T07:27:13.250Z,16.94
2023-09-21T07:29:39.792Z,16.81
2023-09-21T07:32:08.006Z,16.72
2023-09-21T07:34:38.540Z,16.77
2023-09-21T07:37:06.109Z,16.84
2023-09-21T07:39:32.696Z,17.30
2023-09-21T07:41:59.624Z,17.04
2023-09-21T07:44:27.496Z,17.17
2023-09-21T07:46:55.525Z,17.24
2023-09-21T07:49:22.942Z,17.38
2023-09-21T07:51:49.997Z,17.45
2023-09-21T07:54:16.762Z,17.61
2023-09-21T07:56:43.389Z,17.72
2023-09-21T07:59:09.940Z,17.85
2023-09-21T08:01:37.203Z,18.26
2023-09-21T08:04:05.674Z,18.39
2023-09-21T08:06:33.932Z,18.52
2023-09-21T08:09:05.505Z,18.89
2023-09-21T08:11:36.987Z,18.79
2023-09-21T08:14:06.272Z,18.92
2023-09-21T08:16:36.809Z,19.14
2023-09-21T08:19:03.458Z,19.24
2023-09-21T08:21:29.975Z,19.51
2023-09-21T08:23:56.732Z,19.80
2023-09-21T08:26:23.940Z,19.60
2023-09-21T08:28:57.806Z,19.72
2023-09-21T08:31:24.684Z,19.99
2023-09-21T08:33:55.796Z,19.99
2023-09-21T08:36:22.621Z,19.99
2023-09-21T08:38:52.587Z,20.19
2023-09-21T08:41:19.631Z,20.16
2023-09-21T08:43:46.951Z,20.10
2023-09-21T08:46:14.495Z,20.33
2023-09-21T08:48:45.108Z,20.52
2023-09-21T08:51:20.056Z,20.47
2023-09-21T08:53:54.841Z,20.52
2023-09-21T08:56:25.215Z,20.68
2023-09-21T08:58:58.295Z,21.13
2023-09-21T09:01:26.959Z,21.80
2023-09-21T09:03:54.840Z,21.88
2023-09-21T09:06:24.244Z,21.98
2023-09-21T09:08:50.950Z,22.24
2023-09-21T09:11:39.912Z,22.56
2023-09-21T09:14:17.110Z,22.53
2023-09-21T09:16:44.641Z,22.93
2023-09-21T09:19:12.548Z,23.31
2023-09-21T09:21:39.897Z,22.81
2023-09-21T09:24:07.136Z,22.98
2023-09-21T09:26:33.900Z,23.00
2023-09-21T09:29:08.028Z,23.45
2023-09-21T09:31:37.948Z,23.88
2023-09-21T09:34:05.024Z,23.90
2023-09-21T09:36:33.375Z,24.08
2023-09-21T09:39:00.887Z,23.71
2023-09-21T09:41:32.502Z,24.03
2023-09-21T09:44:02.417Z,24.27
2023-09-21T09:46:30.468Z,24.08
2023-09-21T09:49:01.915Z,24.22
2023-09-21T09:51:36.949Z,24.15
2023-09-21T09:54:03.775Z,24.27
2023-09-21T09:56:30.849Z,24.34
2023-09-21T09:59:00.213Z,24.45
2023-09-21T10:01:27.957Z,24.30
2023-09-21T10:03:55.862Z,24.65
2023-09-21T10:06:25.877Z,24.59
2023-09-21T10:08:53.776Z,24.72
2023-09-21T10:11:21.271Z,25.17
2023-09-21T10:13:52.087Z,25.40
2023-09-21T10:16:20.056Z,25.11
2023-09-21T10:18:47.148Z,24.93
2023-09-21T10:21:26.856Z,25.04
2023-09-21T10:24:07.197Z,24.97
2023-09-21T10:26:35.925Z,24.99
2023-09-21T10:29:02.892Z,25.21
2023-09-21T10:31:31.146Z,25.62
2023-09-21T10:34:00.323Z,25.13
2023-09-21T10:36:31.001Z,25.38
2023-09-21T10:39:09.474Z,25.21
2023-09-21T10:41:37.021Z,24.90
2023-09-21T10:44:06.397Z,25.17
2023-09-21T10:46:35.816Z,25.42
2023-09-21T10:49:07.687Z,25.66
2023-09-21T10:51:34.777Z,25.80
2023-09-21T10:54:02.088Z,25.99
2023-09-21T10:56:28.642Z,26.34
2023-09-21T10:58:55.364Z,26.51
2023-09-21T11:01:23.808Z,26.24
2023-09-21T11:03:50.687Z,26.05
2023-09-21T11:06:18.109Z,26.34
2023-09-21T11:08:48.456Z,26.10
2023-09-21T11:11:19.251Z,26.51
2023-09-21T11:13:55.274Z,26.52
2023-09-21T11:16:22.792Z,26.51
2023-09-21T11:18:49.812Z,26.60
2023-09-21T11:21:17.263Z,26.70
2023-09-21T11:23:44.097Z,26.42
2023-09-21T11:26:10.987Z,26.79
2023-09-21T11:28:41.061Z,26.29
2023-09-21T11:31:09.943Z,26.31
2023-09-21T11:33:37.194Z,26.64
2023-09-21T11:36:04.862Z,27.04
2023-09-21T11:38:37.231Z,26.97
2023-09-21T11:41:05.135Z,27.02
2023-09-21T11:43:32.037Z,27.01
2023-09-21T11:46:02.783Z,27.20
2023-09-21T11:48:29.694Z,27.82
2023-09-21T11:51:00.100Z,27.24
2023-09-21T11:53:27.194Z,27.11
2023-09-21T11:55:54.180Z,26.77
2023-09-21T11:58:21.592Z,26.83
2023-09-21T12:00:52.059Z,26.89
2023-09-21T12:03:22.008Z,27.30
2023-09-21T12:05:48.678Z,27.30
2023-09-21T12:08:16.505Z,26.96
2023-09-21T12:10:43.518Z,26.93
2023-09-21T12:13:12.553Z,26.85
2023-09-21T12:15:40.153Z,26.82
2023-09-21T12:18:07.529Z,26.86
2023-09-21T12:20:34.456Z,26.79
2023-09-21T12:23:01.034Z,26.83
2023-09-21T12:25:27.524Z,26.62
2023-09-21T12:27:55.330Z,26.84
2023-09-21T12:30:22.031Z,27.49
2023-09-21T12:32:48.681Z,27.61
2023-09-21T12:35:15.216Z,28.08
2023-09-21T12:37:41.817Z,27.98
2023-09-21T12:40:08.565Z,27.50
2023-09-21T12:42:38.601Z,27.47
2023-09-21T12:45:06.306Z,27.15
2023-09-21T12:47:33.775Z,26.84
2023-09-21T12:50:00.339Z,27.18
2023-09-21T12:52:27.173Z,27.44
2023-09-21T12:54:53.798Z,27.47
2023-09-21T12:57:20.595Z,27.62
2023-09-21T12:59:49.117Z,27.61
2023-09-21T13:02:15.955Z,27.89
2023-09-21T13:04:43.445Z,28.00
2023-09-21T13:07:10.247Z,27.76
2023-09-21T13:09:51.986Z,27.80
2023-09-21T13:12:20.297Z,27.62
2023-09-21T13:14:47.338Z,27.47
2023-09-21T13:17:14.036Z,27.21
2023-09-21T13:19:40.981Z,27.00
2023-09-21T13:22:07.385Z,27.25
2023-09-21T13:24:34.206Z,27.34
2023-09-21T13:27:01.480Z,27.71
2023-09-21T13:29:29.159Z,27.79
2023-09-21T13:31:55.745Z,27.92
2023-09-21T13:34:24.932Z,27.55
2023-09-21T13:36:51.569Z,27.53
2023-09-21T13:39:18.040Z,27.44
2023-09-21T13:41:50.136Z,27.74
2023-09-21T13:44:16.877Z,28.06
2023-09-21T13:46:43.421Z,28.42
2023-09-21T13:49:10.238Z,28.31
2023-09-21T13:51:36.829Z,28.55
2023-09-21T13:54:03.457Z,28.60
2023-09-21T13:56:33.277Z,28.61
2023-09-21T13:58:59.705Z,28.57
2023-09-21T14:01:28.409Z,28.22
2023-09-21T14:03:56.914Z,28.39
2023-09-21T14:06:23.672Z,27.90
2023-09-21T14:08:50.396Z,27.55
2023-09-21T14:11:19.093Z,27.24
2023-09-21T14:13:46.724Z,27.63
2023-09-21T14:16:13.845Z,27.58
2023-09-21T14:18:41.142Z,28.08
2023-09-21T14:21:08.856Z,28.32
2023-09-21T14:23:39.034Z,27.85
2023-09-21T14:26:05.653Z,27.97
2023-09-21T14:28:33.944Z,27.92
2023-09-21T14:31:00.461Z,27.98
2023-09-21T14:33:27.754Z,28.23
2023-09-21T14:35:55.749Z,27.85
2023-09-21T14:38:22.541Z,27.77
2023-09-21T14:40:49.608Z,27.83
2023-09-21T14:43:18.868Z,27.75
2023-09-21T14:45:45.379Z,27.58
2023-09-21T14:48:13.240Z,27.58
2023-09-21T14:50:40.164Z,27.63
2023-09-21T14:53:06.970Z,27.55
2023-09-21T14:55:33.741Z,27.56
2023-09-21T14:58:01.249Z,27.38
2023-09-21T15:00:27.893Z,27.20
2023-09-21T15:02:54.998Z,27.20
2023-09-21T15:05:21.629Z,27.07
2023-09-21T15:07:56.086Z,26.93
2023-09-21T15:10:34.736Z,27.06
2023-09-21T15:13:01.509Z,27.06
2023-09-21T15:15:29.636Z,27.12
2023-09-21T15:17:56.126Z,27.03
2023-09-21T15:20:22.601Z,27.08
2023-09-21T15:22:49.366Z,26.95
2023-09-21T15:25:21.464Z,26.89
2023-09-21T15:27:48.396Z,26.91
2023-09-21T15:30:15.364Z,26.76
2023-09-21T15:32:45.163Z,26.70
2023-09-21T15:35:11.601Z,26.71
2023-09-21T15:37:40.868Z,26.66
2023-09-21T15:40:09.000Z,26.63
2023-09-21T15:42:38.105Z,26.55
2023-09-21T15:45:06.142Z,26.43
2023-09-21T15:47:32.643Z,26.38
2023-09-21T15:49:59.105Z,26.22
2023-09-21T15:52:26.920Z,26.15
2023-09-21T15:54:57.841Z,26.10
2023-09-21T15:57:24.419Z,26.03
2023-09-21T15:59:51.304Z,25.99
2023-09-21T16:02:18.415Z,25.92
2023-09-21T16:04:45.318Z,25.85
2023-09-21T16:07:12.717Z,25.82
2023-09-21T16:09:39.713Z,25.70
2023-09-21T16:12:07.274Z,25.64
2023-09-21T16:14:34.032Z,25.53
2023-09-21T16:17:06.152Z,25.45
2023-09-21T16:19:32.617Z,25.33
2023-09-21T16:22:00.652Z,25.30
2023-09-21T16:24:27.520Z,25.25
2023-09-21T16:26:54.080Z,25.20
2023-09-21T16:29:20.683Z,25.07
2023-09-21T16:31:47.402Z,25.03
2023-09-21T16:34:14.068Z,24.96
2023-09-21T16:36:40.544Z,24.79
2023-09-21T16:39:07.266Z,24.65
2023-09-21T16:41:34.103Z,24.62
2023-09-21T16:44:00.481Z,24.59
2023-09-21T16:48:57.911Z,24.49
2023-09-21T16:51:24.865Z,24.39
2023-09-21T16:53:51.334Z,24.22
2023-09-21T16:56:18.183Z,24.11
2023-09-21T16:58:44.793Z,24.08
2023-09-21T17:01:11.590Z,24.05
2023-09-21T17:03:39.622Z,23.83
2023-09-21T17:06:08.632Z,23.76
2023-09-21T17:08:35.014Z,23.54
2023-09-21T17:11:02.559Z,23.29
2023-09-21T17:13:29.362Z,23.17
2023-09-21T17:15:57.266Z,23.14
2023-09-21T17:18:26.903Z,22.94
2023-09-21T17:20:54.301Z,22.84
2023-09-21T17:23:21.068Z,22.78
2023-09-21T17:25:48.030Z,22.67
2023-09-21T17:28:14.645Z,22.60
2023-09-21T17:30:41.511Z,22.54
2023-09-21T17:33:08.685Z,22.52
2023-09-21T17:35:37.069Z,22.50
2023-09-21T17:38:04.658Z,22.58
2023-09-21T17:40:31.391Z,22.55
2023-09-21T17:42:58.311Z,22.47
2023-09-21T17:45:25.257Z,22.45
2023-09-21T17:47:51.769Z,22.44
2023-09-21T17:50:22.723Z,22.42
2023-09-21T17:52:49.794Z,22.33
2023-09-21T17:55:18.195Z,22.26
2023-09-21T17:57:45.452Z,22.16
2023-09-21T18:00:18.054Z,22.14
2023-09-21T18:02:44.947Z,22.10
2023-09-21T18:05:14.533Z,22.02
2023-09-21T18:07:44.208Z,22.05
2023-09-21T18:10:10.981Z,21.99
2023-09-21T18:12:39.310Z,22.02
2023-09-21T18:15:10.458Z,21.96
2023-09-21T18:17:40.726Z,21.99
2023-09-21T18:20:07.891Z,21.96
2023-09-21T18:22:34.310Z,21.85
2023-09-21T18:25:00.734Z,21.83
2023-09-21T18:27:27.574Z,21.83
2023-09-21T18:29:54.610Z,21.77
2023-09-21T18:32:24.214Z,21.77
2023-09-21T18:34:58.024Z,21.73
2023-09-21T18:37:24.662Z,21.67
2023-09-21T18:39:51.491Z,21.66
2023-09-21T18:42:18.036Z,21.68
2023-09-21T18:44:44.622Z,21.71
2023-09-21T18:47:11.631Z,21.72
2023-09-21T18:49:41.844Z,21.66
2023-09-21T18:52:08.372Z,21.63
2023-09-21T18:54:34.895Z,21.58
2023-09-21T18:57:03.115Z,21.56
2023-09-21T18:59:35.390Z,21.59
2023-09-21T19:02:02.537Z,21.64
2023-09-21T19:04:29.840Z,21.57
2023-09-21T19:06:56.300Z,21.36
2023-09-21T19:09:22.879Z,21.01
2023-09-21T19:11:50.645Z,20.79
2023-09-21T19:14:17.135Z,20.66
2023-09-21T19:16:45.337Z,20.52
2023-09-21T19:19:11.807Z,20.33
2023-09-21T19:21:38.853Z,20.05
2023-09-21T19:24:07.174Z,19.92
2023-09-21T19:26:33.984Z,19.93
2023-09-21T19:29:01.793Z,19.89
2023-09-21T19:31:28.465Z,19.66
2023-09-21T19:33:56.162Z,19.42
2023-09-21T19:36:22.984Z,19.27
2023-09-21T19:38:49.793Z,19.05
2023-09-21T19:41:18.523Z,18.64
2023-09-21T19:43:46.018Z,18.22
2023-09-21T19:46:12.950Z,17.98
2023-09-21T19:48:39.588Z,17.64
2023-09-21T19:51:06.917Z,17.40
2023-09-21T19:53:33.644Z,17.35
2023-09-21T19:56:00.570Z,17.28
2023-09-21T19:58:31.304Z,17.32
2023-09-21T20:00:57.704Z,17.19
2023-09-21T20:03:25.413Z,17.11
2023-09-21T20:05:51.972Z,17.19
2023-09-21T20:08:18.504Z,17.11
2023-09-21T20:10:44.977Z,16.96
2023-09-21T20:13:11.513Z,16.89
2023-09-21T20:15:37.975Z,16.84
2023-09-21T20:18:05.553Z,16.96
2023-09-21T20:20:31.958Z,16.99
2023-09-21T20:22:58.634Z,16.80
2023-09-21T20:25:26.071Z,16.69
2023-09-21T20:27:54.504Z,16.50
2023-09-21T20:30:21.216Z,16.42
2023-09-21T20:32:48.217Z,16.33
2023-09-21T20:35:14.905Z,16.20
2023-09-21T20:37:41.376Z,16.31
2023-09-21T20:40:08.435Z,16.10
2023-09-21T20:42:34.966Z,16.14
2023-09-21T20:45:01.839Z,16.13
2023-09-21T20:47:28.363Z,16.15
2023-09-21T20:49:54.909Z,16.11
2023-09-21T20:52:21.535Z,16.10
2023-09-21T20:54:47.999Z,15.99
2023-09-21T20:57:14.556Z,16.11
2023-09-21T20:59:41.037Z,16.13
2023-09-21T21:02:07.595Z,16.13
2023-09-21T21:04:36.692Z,16.09
2023-09-21T21:07:03.220Z,15.96
2023-09-21T21:09:29.978Z,15.87
2023-09-21T21:11:56.438Z,15.85
2023-09-21T21:14:22.834Z,15.82
2023-09-21T21:16:49.564Z,15.89
2023-09-21T21:19:16.601Z,15.74
2023-09-21T21:21:43.364Z,15.81
2023-09-21T21:24:10.068Z,15.75
2023-09-21T21:26:36.468Z,15.76
2023-09-21T21:29:02.955Z,15.74
2023-09-21T21:31:30.075Z,15.72
2023-09-21T21:33:56.629Z,15.69
2023-09-21T21:36:23.585Z,15.64
2023-09-21T21:38:50.063Z,15.69
2023-09-21T21:41:16.845Z,15.59
2023-09-21T21:43:45.163Z,15.54
2023-09-21T21:46:15.504Z,15.66
2023-09-21T21:48:42.026Z,15.70
2023-09-21T21:51:08.726Z,15.74
2023-09-21T21:53:35.377Z,15.74
2023-09-21T21:56:01.799Z,15.79
2023-09-21T21:58:28.533Z,15.86
2023-09-21T22:00:55.293Z,15.90
2023-09-21T22:03:21.869Z,16.00
2023-09-21T22:05:49.497Z,15.87
2023-09-21T22:08:17.200Z,15.74
2023-09-21T22:10:43.880Z,15.83
2023-09-21T22:13:11.182Z,15.77
2023-09-21T22:15:38.168Z,15.73
2023-09-21T22:18:05.833Z,15.83
2023-09-21T22:20:32.480Z,15.84
2023-09-21T22:22:58.949Z,15.83
2023-09-21T22:25:28.307Z,15.88
2023-09-21T22:27:55.615Z,15.85
2023-09-21T22:30:22.369Z,15.84
2023-09-21T22:32:49.090Z,15.92
2023-09-21T22:35:15.810Z,15.81
2023-09-21T22:37:43.542Z,15.68
2023-09-21T22:40:10.921Z,15.79
2023-09-21T22:42:48.203Z,15.80
2023-09-21T22:45:16.812Z,15.79
2023-09-21T22:47:44.570Z,15.70
2023-09-21T22:50:12.800Z,15.66
2023-09-21T22:52:39.327Z,15.62
2023-09-21T22:55:06.061Z,15.61
2023-09-21T22:57:41.672Z,15.54
2023-09-21T23:00:08.744Z,15.60
2023-09-21T23:02:35.188Z,15.60
2023-09-21T23:05:01.645Z,15.54
2023-09-21T23:07:28.196Z,15.58
2023-09-21T23:09:55.980Z,15.66
2023-09-21T23:12:22.986Z,15.75
2023-09-21T23:14:49.359Z,15.63
2023-09-21T23:17:15.761Z,15.65
2023-09-21T23:19:42.415Z,15.70
2023-09-21T23:22:08.869Z,15.66
2023-09-21T23:27:03.444Z,15.68
2023-09-21T23:29:30.278Z,15.79
2023-09-21T23:31:56.660Z,15.69
2023-09-21T23:34:23.412Z,15.63
2023-09-21T23:36:50.105Z,15.51
2023-09-21T23:39:16.833Z,15.45
2023-09-21T23:41:43.278Z,15.53
2023-09-21T23:44:09.689Z,15.52
2023-09-21T23:46:36.366Z,15.42
2023-09-21T23:49:02.954Z,15.44
2023-09-21T23:51:29.315Z,15.42
2023-09-21T23:53:55.932Z,15.38
2023-09-21T23:56:22.413Z,15.40
2023-09-21T23:58:48.960Z,15.41
